Time;durP1;ratioP1;P1;durP2;ratioP2;P2;SDS_P1;SDS_P2;PMS_P1;PMS_P2;Temp;Humidity;BMP_temperature;BMP_pressure;BME280_temperature;BME280_humidity;BME280_pressure;Samples;Min_cycle;Max_cycle;Signal;HPM_P1;HPM_P2
2022/12/04 00:00:18;;;;;;;0.57;0.30;;;;;;;0.62;59.32;103407.19;5073834;28;20077;-72
2022/12/04 00:02:44;;;;;;;1.02;0.45;;;;;;;0.64;59.93;103395.34;5072556;28;20140;-72
2022/12/04 00:05:11;;;;;;;0.68;0.30;;;;;;;0.64;60.09;103387.63;5073667;28;20052;-72
2022/12/04 00:07:38;;;;;;;0.95;0.40;;;;;;;0.65;60.11;103385.94;5072927;28;20075;-73
2022/12/04 00:10:05;;;;;;;0.40;0.20;;;;;;;0.65;60.13;103391.06;5079172;28;20044;-72
2022/12/04 00:12:34;;;;;;;2.97;0.38;;;;;;;0.66;59.73;103387.75;5073216;28;20036;-73
2022/12/04 00:15:03;;;;;;;2.35;0.60;;;;;;;0.67;59.69;103400.69;5074082;28;20070;-72
2022/12/04 00:17:30;;;;;;;0.60;0.40;;;;;;;0.67;59.71;103390.38;5074063;28;20040;-72
2022/12/04 00:19:57;;;;;;;0.73;0.38;;;;;;;0.67;59.72;103399.78;5068275;28;20082;-72
2022/12/04 00:22:23;;;;;;;0.70;0.30;;;;;;;0.65;59.55;103396.22;5076782;28;20098;-72
2022/12/04 00:24:50;;;;;;;0.90;0.47;;;;;;;0.65;59.41;103392.00;5069992;28;20052;-71
2022/12/04 00:27:17;;;;;;;1.05;0.60;;;;;;;0.67;59.70;103395.53;5072910;28;20124;-73
2022/12/04 00:29:44;;;;;;;0.90;0.30;;;;;;;0.69;59.56;103389.63;5072260;28;20168;-72
2022/12/04 00:32:12;;;;;;;0.65;0.30;;;;;;;0.69;60.13;103384.47;5072489;28;20041;-73
2022/12/04 00:34:39;;;;;;;1.15;0.50;;;;;;;0.70;60.28;103392.28;5073343;28;20048;-72
2022/12/04 00:37:05;;;;;;;1.10;0.50;;;;;;;0.66;60.12;103383.47;5068107;28;20044;-73
2022/12/04 00:39:32;;;;;;;0.90;0.40;;;;;;;0.67;59.79;103398.09;5076476;28;20052;-72
2022/12/04 00:41:59;;;;;;;1.20;0.60;;;;;;;0.69;59.29;103403.38;5073494;28;20052;-71
2022/12/04 00:44:26;;;;;;;1.13;0.40;;;;;;;0.69;59.98;103402.47;5073455;28;20052;-72
2022/12/04 00:46:52;;;;;;;1.13;0.40;;;;;;;0.69;59.82;103397.34;5075733;28;20101;-72
2022/12/04 00:49:20;;;;;;;0.93;0.40;;;;;;;0.70;60.01;103393.97;5075610;28;20104;-72
2022/12/04 00:51:47;;;;;;;1.85;0.52;;;;;;;0.70;59.81;103400.00;5071025;28;20057;-72
2022/12/04 00:54:14;;;;;;;1.67;0.40;;;;;;;0.72;60.57;103397.53;5074098;28;20110;-73
2022/12/04 00:56:41;;;;;;;1.45;0.50;;;;;;;0.71;60.61;103390.56;5075403;28;20102;-72
2022/12/04 00:59:07;;;;;;;0.77;0.47;;;;;;;0.73;60.03;103389.00;5076450;28;20110;-72
2022/12/04 01:01:34;;;;;;;1.70;0.80;;;;;;;0.74;60.35;103390.78;5073892;28;20093;-72
2022/12/04 01:04:01;;;;;;;1.73;0.98;;;;;;;0.62;60.83;103371.19;5074537;28;20569;-72
2022/12/04 01:06:31;;;;;;;1.10;0.50;;;;;;;0.74;60.62;103385.63;5073109;28;20052;-72
2022/12/04 01:08:59;;;;;;;0.90;0.50;;;;;;;0.74;61.24;103377.91;5072445;28;20501;-72
2022/12/04 01:11:28;;;;;;;2.35;1.05;;;;;;;0.76;61.02;103386.63;5072260;28;20044;-72
2022/12/04 01:13:55;;;;;;;2.35;0.95;;;;;;;0.76;60.97;103390.09;5070065;28;20040;-71
2022/12/04 01:16:25;;;;;;;1.00;0.60;;;;;;;0.74;61.14;103378.81;5065972;28;20734;-72
2022/12/04 01:18:53;;;;;;;1.58;0.82;;;;;;;0.77;60.80;103381.59;5073371;28;20048;-73
2022/12/04 01:21:20;;;;;;;3.00;1.10;;;;;;;0.77;60.83;103384.16;5073537;28;20052;-72
2022/12/04 01:23:48;;;;;;;1.45;0.85;;;;;;;0.76;60.85;103387.50;5072707;28;20056;-73
2022/12/04 01:26:15;;;;;;;1.67;0.95;;;;;;;0.73;61.20;103381.28;5069891;28;20769;-72
2022/12/04 01:28:42;;;;;;;1.50;0.63;;;;;;;0.70;61.19;103369.13;5067273;28;20459;-72
2022/12/04 01:31:12;;;;;;;1.52;0.70;;;;;;;0.76;61.40;103382.38;5067385;28;20093;-72
2022/12/04 01:33:40;;;;;;;1.75;0.50;;;;;;;0.76;61.34;103384.06;5070219;28;20530;-72
2022/12/04 01:36:10;;;;;;;1.63;0.90;;;;;;;0.76;61.43;103382.38;5069794;28;20114;-72
2022/12/04 01:38:37;;;;;;;1.25;0.82;;;;;;;0.78;61.17;103385.94;5072501;28;20056;-73
2022/12/04 01:41:06;;;;;;;1.13;0.60;;;;;;;0.72;61.29;103379.53;5071268;28;20048;-72
2022/12/04 01:43:35;;;;;;;3.92;0.70;;;;;;;0.79;61.11;103402.25;5074451;28;20569;-73
2022/12/04 01:46:02;;;;;;;0.75;0.45;;;;;;;0.79;61.18;103397.09;5068727;28;20087;-71
2022/12/04 01:48:31;;;;;;;1.17;0.47;;;;;;;0.80;60.90;103393.75;5074910;28;20713;-72
2022/12/04 01:51:06;;;;;;;1.50;0.50;;;;;;;0.80;61.40;103391.19;5072278;28;20068;-72
2022/12/04 01:53:35;;;;;;;;;;;;;;;0.79;61.81;103384.25;5071480;28;20071;-73
2022/12/04 01:56:03;;;;;;;0.93;0.50;;;;;;;0.77;61.09;103384.16;5075105;28;20010;-72
2022/12/04 01:58:34;;;;;;;2.03;0.88;;;;;;;0.76;60.94;103379.78;5075870;28;20144;-72
2022/12/04 02:01:04;;;;;;;0.80;0.38;;;;;;;0.74;61.32;103381.41;5073799;28;20080;-72
2022/12/04 02:03:31;;;;;;;1.20;0.40;;;;;;;0.73;61.40;103378.72;5070455;28;20048;-72
2022/12/04 02:05:57;;;;;;;1.13;0.35;;;;;;;0.73;61.03;103383.84;5071519;28;20048;-71
2022/12/04 02:08:25;;;;;;;1.38;0.50;;;;;;;0.75;60.99;103384.84;5074379;28;20072;-72
2022/12/04 02:11:01;;;;;;;1.80;0.40;;;;;;;0.73;61.15;103378.72;5075009;28;20049;-72
2022/12/04 02:13:35;;;;;;;1.02;0.40;;;;;;;0.76;60.83;103384.06;5075980;28;20123;-72
2022/12/04 02:16:13;;;;;;;2.38;0.45;;;;;;;0.77;61.60;103372.97;5081271;28;20101;-72
2022/12/04 02:18:51;;;;;;;0.63;0.40;;;;;;;0.78;61.44;103382.47;5081082;28;20055;-72
2022/12/04 02:21:25;;;;;;;1.10;0.45;;;;;;;0.78;60.95;103383.34;5083226;28;20044;-73
2022/12/04 02:24:32;;;;;;;1.00;0.57;;;;;;;0.80;61.41;103386.94;5083503;28;20489;-72
2022/12/04 02:27:03;;;;;;;0.60;0.30;;;;;;;0.79;61.18;103371.38;5081768;28;20288;-72
2022/12/04 02:29:39;;;;;;;0.75;0.40;;;;;;;0.76;61.65;103366.03;5075660;28;20109;-72
2022/12/04 02:32:09;;;;;;;;;;;;;;;0.78;61.37;103372.19;5078322;28;20048;-72
2022/12/04 02:34:42;;;;;;;0.82;0.45;;;;;;;0.78;61.77;103374.75;5080801;28;19932;-72
2022/12/04 02:37:14;;;;;;;0.60;0.32;;;;;;;0.79;61.37;103361.09;5078429;28;20471;-74
2022/12/04 02:39:46;;;;;;;0.80;0.40;;;;;;;0.79;61.13;103361.09;5076916;28;20044;-72
2022/12/04 02:42:18;;;;;;;0.80;0.40;;;;;;;0.79;61.23;103368.81;5078799;28;20081;-71
2022/12/04 02:44:50;;;;;;;1.02;0.50;;;;;;;0.79;60.66;103366.22;5078621;28;20048;-72
2022/12/04 02:47:22;;;;;;;0.90;0.50;;;;;;;0.79;61.46;103368.81;5078370;28;20105;-72
2022/12/04 02:49:54;;;;;;;1.42;0.52;;;;;;;0.79;61.95;103381.66;5079410;28;20106;-73
2022/12/04 02:52:27;;;;;;;3.05;0.60;;;;;;;0.81;61.60;103377.53;5078814;28;20105;-72
2022/12/04 02:54:59;;;;;;;1.42;0.88;;;;;;;0.81;61.12;103380.09;5076129;28;20043;-73
2022/12/04 02:57:30;;;;;;;1.45;0.60;;;;;;;0.81;60.91;103377.53;5081672;28;20044;-72
2022/12/04 03:00:00;;;;;;;1.23;0.50;;;;;;;0.78;60.94;103385.94;5076269;28;20071;-72
2022/12/04 03:02:33;;;;;;;1.10;0.50;;;;;;;0.77;60.54;103380.66;5072417;28;20045;-72
2022/12/04 03:05:04;;;;;;;0.90;0.50;;;;;;;0.72;61.54;103369.22;5078994;28;20048;-72
2022/12/04 03:07:39;;;;;;;1.63;0.40;;;;;;;0.74;61.31;103377.91;5079531;28;20047;-72
2022/12/04 03:10:09;;;;;;;;;;;;;;;0.76;60.91;103376.34;5075513;28;20097;-72
2022/12/04 03:12:41;;;;;;;1.17;0.50;;;;;;;0.74;60.64;103370.19;5077127;28;19924;-72
2022/12/04 03:15:16;;;;;;;0.90;0.43;;;;;;;0.72;60.99;103366.66;5078650;28;20052;-72
2022/12/04 03:17:47;;;;;;;;;;;;;;;0.75;61.29;103372.00;5081126;28;20068;-72
2022/12/04 03:20:17;;;;;;;2.15;0.68;;;;;;;0.75;61.23;103375.44;5077603;28;19927;-72
2022/12/04 03:22:50;;;;;;;1.58;0.90;;;;;;;0.75;60.64;103377.13;5077934;28;20052;-72
2022/12/04 03:25:17;;;;;;;1.17;0.47;;;;;;;0.75;60.81;103379.72;5082447;28;20143;-72
2022/12/04 03:27:51;;;;;;;1.02;0.40;;;;;;;0.72;60.60;103366.66;5078602;28;20453;-72
2022/12/04 03:30:21;;;;;;;1.63;0.50;;;;;;;0.76;61.23;103379.78;5081643;28;20052;-72
2022/12/04 03:32:51;;;;;;;1.48;0.50;;;;;;;0.76;60.63;103373.75;5077323;28;20051;-72
2022/12/04 03:35:23;;;;;;;0.90;0.43;;;;;;;0.63;60.81;103354.97;5076054;28;20089;-72
2022/12/04 03:37:56;;;;;;;2.78;0.50;;;;;;;0.76;61.41;103376.34;5078915;28;20056;-72
2022/12/04 03:40:28;;;;;;;0.50;0.30;;;;;;;0.76;61.11;103373.75;5080188;28;20479;-73
2022/12/04 03:43:00;;;;;;;1.35;0.70;;;;;;;0.76;61.75;103382.38;5079666;28;20056;-72
2022/12/04 03:45:36;;;;;;;0.80;0.40;;;;;;;0.74;61.09;103371.09;5075939;28;20109;-72
2022/12/04 03:48:08;;;;;;;1.95;0.50;;;;;;;0.74;61.06;103373.69;5078465;28;20048;-72
2022/12/04 03:50:38;;;;;;;2.50;0.50;;;;;;;0.77;60.99;103378.09;5085512;28;20536;-72
2022/12/04 03:53:12;;;;;;;2.00;0.80;;;;;;;0.70;60.99;103366.53;5081623;28;20059;-72
2022/12/04 03:55:45;;;;;;;0.80;0.40;;;;;;;0.75;61.69;103375.44;5081956;28;20047;-77
2022/12/04 03:58:16;;;;;;;1.58;0.50;;;;;;;0.75;60.61;103374.56;5079318;28;20458;-76
2022/12/04 04:00:47;;;;;;;1.40;0.60;;;;;;;0.75;61.07;103377.13;5075642;28;20535;-76
2022/12/04 04:03:19;;;;;;;1.30;0.50;;;;;;;0.75;61.41;103382.28;5079108;28;20098;-76
2022/12/04 04:05:50;;;;;;;1.10;0.40;;;;;;;0.68;61.57;103365.53;5084172;28;20056;-76
2022/12/04 04:08:32;;;;;;;2.78;0.90;;;;;;;0.71;61.12;103377.72;5060238;28;20831;-76
2022/12/04 04:11:07;;;;;;;0.95;0.40;;;;;;;0.74;61.19;103380.47;5077840;28;20083;-76
2022/12/04 04:24:55;;;;;;;0.80;0.40;;;;;;;0.70;61.15;103375.94;5079523;28;20055;-76
2022/12/04 04:27:21;;;;;;;2.95;0.90;;;;;;;0.69;61.06;103371.59;5080867;28;20053;-76
2022/12/04 04:29:48;;;;;;;1.73;0.50;;;;;;;0.69;61.38;103371.59;5079711;28;20814;-76
2022/12/04 04:32:21;;;;;;;0.98;0.40;;;;;;;0.68;61.55;103380.97;5079525;28;20074;-75
2022/12/04 04:34:55;;;;;;;1.42;0.40;;;;;;;0.68;61.46;103380.97;5077565;28;20500;-75
2022/12/04 04:37:29;;;;;;;0.70;0.40;;;;;;;0.68;61.20;103383.56;5079201;28;20457;-76
2022/12/04 04:40:03;;;;;;;0.98;0.50;;;;;;;0.67;61.54;103385.25;5078298;28;20098;-75
2022/12/04 04:42:34;;;;;;;1.33;0.65;;;;;;;0.66;61.27;103378.34;5079969;28;20036;-76
2022/12/04 04:45:08;;;;;;;1.52;0.40;;;;;;;0.63;60.92;103387.53;5079902;28;20113;-76
2022/12/04 04:47:41;;;;;;;1.90;0.50;;;;;;;0.64;61.24;103392.75;5079189;28;20052;-76
2022/12/04 04:50:10;;;;;;;2.25;0.45;;;;;;;0.63;61.65;103382.41;5081221;28;20044;-76
2022/12/04 04:52:41;;;;;;;1.60;0.65;;;;;;;0.61;61.75;103387.44;5077594;28;20089;-76
2022/12/04 04:55:09;;;;;;;1.30;0.68;;;;;;;0.59;61.82;103381.28;5078797;28;20123;-76
2022/12/04 04:57:36;;;;;;;1.10;0.50;;;;;;;0.59;61.60;103375.25;5077419;28;20036;-76
2022/12/04 05:00:06;;;;;;;1.63;0.65;;;;;;;0.58;61.52;103381.22;5081661;28;20052;-76
2022/12/04 05:02:33;;;;;;;1.20;0.55;;;;;;;0.57;61.57;103382.91;5081480;28;20055;-76
2022/12/04 05:05:01;;;;;;;1.90;0.50;;;;;;;0.58;61.63;103381.22;5077637;28;20123;-76
2022/12/04 05:07:28;;;;;;;1.05;0.50;;;;;;;0.56;61.77;103375.94;5081761;28;20421;-76
2022/12/04 05:09:54;;;;;;;1.45;0.50;;;;;;;0.54;62.01;103374.97;5079368;28;20094;-76
2022/12/04 05:12:21;;;;;;;1.30;0.40;;;;;;;0.54;61.39;103371.50;5084352;28;20077;-75
2022/12/04 05:14:48;;;;;;;1.55;0.60;;;;;;;0.52;61.18;103370.53;5076292;28;20048;-76
2022/12/04 05:17:16;;;;;;;1.02;0.55;;;;;;;0.52;62.12;103381.69;5081289;28;20048;-76
2022/12/04 05:19:53;;;;;;;1.33;0.60;;;;;;;0.52;62.00;103378.25;5073647;28;20117;-76
2022/12/04 05:22:23;;;;;;;1.77;0.50;;;;;;;0.49;62.14;103378.94;5080924;28;20131;-76
2022/12/04 05:24:50;;;;;;;2.83;0.60;;;;;;;0.49;61.99;103373.78;5080280;28;20044;-76
2022/12/04 05:27:17;;;;;;;1.70;1.13;;;;;;;0.45;62.47;103364.97;5080547;28;20064;-76
2022/12/04 05:29:44;;;;;;;1.58;0.52;;;;;;;0.47;62.58;103367.66;5081855;28;20052;-76
2022/12/04 05:32:10;;;;;;;1.42;0.50;;;;;;;0.46;61.87;103368.44;5081276;28;20052;-76
2022/12/04 05:34:37;;;;;;;1.55;0.60;;;;;;;0.43;61.94;103365.69;5083357;28;20453;-76
2022/12/04 05:37:04;;;;;;;1.25;0.45;;;;;;;0.44;62.46;103367.44;5082838;28;20040;-76
2022/12/04 05:39:33;;;;;;;0.80;0.50;;;;;;;0.42;61.86;103371.59;5075288;28;20044;-76
2022/12/04 05:42:00;;;;;;;1.00;0.52;;;;;;;0.40;62.37;103362.91;5080181;28;20043;-76
2022/12/04 05:44:27;;;;;;;0.90;0.45;;;;;;;0.41;61.85;103368.13;5075460;28;20055;-76
2022/12/04 05:46:53;;;;;;;1.77;0.68;;;;;;;0.40;62.77;103370.63;5079378;28;20772;-76
2022/12/04 05:49:20;;;;;;;1.13;0.60;;;;;;;0.40;62.43;103378.34;5082349;28;20044;-76
2022/12/04 05:51:47;;;;;;;1.90;0.90;;;;;;;0.38;62.73;103385.06;5079191;28;20045;-76
2022/12/04 05:54:13;;;;;;;2.72;0.57;;;;;;;0.34;62.37;103372.78;5077237;28;20470;-76
2022/12/04 05:56:41;;;;;;;1.52;0.60;;;;;;;0.32;62.24;103376.94;5078957;28;20496;-77
2022/12/04 05:59:08;;;;;;;2.65;0.60;;;;;;;0.29;62.91;103372.50;5079890;28;20105;-78
2022/12/04 06:01:35;;;;;;;1.67;0.60;;;;;;;0.32;62.29;103372.69;5080020;28;20466;-78
2022/12/04 06:04:02;;;;;;;2.60;0.57;;;;;;;0.32;62.41;103380.41;5079085;28;20098;-77
2022/12/04 06:06:29;;;;;;;1.13;0.70;;;;;;;0.32;62.19;103387.25;5077558;28;20531;-78
2022/12/04 06:08:57;;;;;;;1.33;0.70;;;;;;;0.31;62.71;103385.44;5083149;28;20044;-77
2022/12/04 06:11:26;;;;;;;1.20;0.50;;;;;;;0.26;62.68;103376.53;5078588;28;20500;-77
2022/12/04 06:13:56;;;;;;;1.58;0.80;;;;;;;0.30;62.70;103379.41;5086839;28;20044;-78
2022/12/04 06:16:25;;;;;;;1.35;0.63;;;;;;;0.26;62.78;103381.66;5086865;28;20139;-77
2022/12/04 06:18:53;;;;;;;1.00;0.60;;;;;;;0.26;62.82;103377.44;5082774;28;20040;-77
2022/12/04 06:21:21;;;;;;;1.33;0.57;;;;;;;0.25;63.05;103375.63;5079530;28;20040;-81
2022/12/04 06:23:48;;;;;;;1.60;0.70;;;;;;;0.18;62.80;103364.06;5071730;28;20393;-76
2022/12/04 06:26:16;;;;;;;3.35;0.98;;;;;;;0.16;63.29;103360.50;5080161;28;20044;-77
2022/12/04 06:28:42;;;;;;;4.13;0.80;;;;;;;0.21;63.00;103371.97;5078367;28;20476;-77
2022/12/04 06:31:13;;;;;;;1.40;0.70;;;;;;;0.12;63.20;103366.25;5075692;28;20049;-77
2022/12/04 06:33:40;;;;;;;1.48;0.57;;;;;;;0.20;63.41;103375.34;5075077;28;20396;-76
2022/12/04 06:36:08;;;;;;;1.55;0.70;;;;;;;0.20;63.42;103387.31;5077983;28;20496;-77
2022/12/04 06:38:35;;;;;;;1.77;0.77;;;;;;;0.19;62.87;103393.22;5076507;28;20458;-76
2022/12/04 06:41:04;;;;;;;3.08;0.63;;;;;;;-0.03;63.43;103349.81;5076980;28;20047;-77
2022/12/04 06:43:31;;;;;;;2.00;1.40;;;;;;;0.15;63.21;103389.59;5076137;28;20377;-77
2022/12/04 06:46:02;;;;;;;1.55;0.60;;;;;;;0.15;63.75;103384.44;5078449;28;20445;-77
2022/12/04 06:48:31;;;;;;;3.05;1.20;;;;;;;0.13;63.57;103390.25;5075447;28;20086;-76
2022/12/04 06:50:58;;;;;;;1.40;0.60;;;;;;;0.13;62.97;103396.28;5077926;28;20457;-77
2022/12/04 06:53:26;;;;;;;3.20;0.65;;;;;;;0.15;63.36;103393.84;5073745;28;20048;-77
2022/12/04 06:55:53;;;;;;;4.20;0.63;;;;;;;0.09;63.05;103390.88;5075008;28;20047;-77
2022/12/04 06:58:20;;;;;;;1.13;0.77;;;;;;;0.09;63.32;103402.03;5073964;28;20051;-77
2022/12/04 07:00:47;;;;;;;3.20;0.85;;;;;;;0.08;63.37;103389.06;5080822;28;20166;-77
2022/12/04 07:03:13;;;;;;;1.40;0.70;;;;;;;0.08;64.01;103400.22;5078855;28;20044;-76
2022/12/04 07:05:42;;;;;;;1.10;0.57;;;;;;;0.12;63.18;103411.63;5082787;28;20495;-76
2022/12/04 07:08:08;;;;;;;1.27;0.82;;;;;;;0.07;63.73;103403.59;5079801;28;20048;-77
2022/12/04 07:10:35;;;;;;;3.30;1.00;;;;;;;0.01;63.35;103400.63;5078883;28;20454;-77
2022/12/04 07:13:02;;;;;;;1.58;1.00;;;;;;;0.07;63.98;103411.31;5082764;28;20085;-76
2022/12/04 07:15:29;;;;;;;1.63;0.60;;;;;;;0.07;64.14;103419.03;5081375;28;20045;-77
2022/12/04 07:17:57;;;;;;;1.80;0.85;;;;;;;0.07;63.58;103418.13;5080980;28;20051;-75
2022/12/04 07:20:23;;;;;;;2.22;0.70;;;;;;;0.06;63.69;103416.34;5082505;28;20526;-75
2022/12/04 07:22:51;;;;;;;2.30;0.65;;;;;;;0.05;64.00;103418.00;5082114;28;20040;-75
2022/12/04 07:25:18;;;;;;;4.07;1.10;;;;;;;0.06;63.79;103418.91;5078065;28;20668;-75
2022/12/04 07:27:45;;;;;;;1.70;0.95;;;;;;;0.06;64.31;103412.09;5077120;28;20056;-74
2022/12/04 07:30:13;;;;;;;2.90;1.08;;;;;;;0.06;64.21;103411.19;5078248;28;20125;-75
2022/12/04 07:32:40;;;;;;;1.88;0.80;;;;;;;-0.04;63.90;103405.44;5082064;28;20548;-75
2022/12/04 07:35:07;;;;;;;1.85;0.85;;;;;;;-0.01;63.58;103404.75;5079052;28;20063;-75
2022/12/04 07:37:35;;;;;;;6.25;0.93;;;;;;;0.02;63.86;103410.09;5083198;28;20098;-75
2022/12/04 07:40:04;;;;;;;2.33;0.70;;;;;;;-0.07;63.71;103391.50;5077344;28;20052;-75
2022/12/04 07:42:31;;;;;;;0.75;0.50;;;;;;;0.02;64.22;103406.66;5076751;28;20450;-75
2022/12/04 07:44:58;;;;;;;1.00;0.60;;;;;;;0.02;63.69;103410.09;5076533;28;20044;-76
2022/12/04 07:47:24;;;;;;;1.63;0.60;;;;;;;0.01;63.45;103408.34;5077481;28;20044;-75
2022/12/04 07:49:51;;;;;;;0.98;0.52;;;;;;;0.01;63.64;103408.34;5078242;28;20040;-76
2022/12/04 07:52:18;;;;;;;1.10;0.50;;;;;;;-0.08;63.78;103397.44;5075468;28;20205;-76
2022/12/04 07:54:45;;;;;;;1.90;0.77;;;;;;;0.02;63.65;103411.78;5075346;28;20051;-75
2022/12/04 07:57:13;;;;;;;1.00;0.50;;;;;;;0.01;63.29;103417.72;5077294;28;20145;-75
2022/12/04 07:59:39;;;;;;;1.75;0.57;;;;;;;-0.02;63.78;103414.16;5078027;28;20048;-75
2022/12/04 08:02:06;;;;;;;2.08;0.70;;;;;;;0.00;64.04;103419.41;5076971;28;20044;-75
2022/12/04 08:04:33;;;;;;;1.83;1.00;;;;;;;-0.01;64.01;103420.19;5081436;28;20040;-74
2022/12/04 08:07:00;;;;;;;1.75;0.52;;;;;;;-0.10;63.91;103404.16;5080630;28;20047;-76
2022/12/04 08:09:27;;;;;;;1.98;0.82;;;;;;;-0.02;64.04;103423.53;5078682;28;20109;-75
2022/12/04 08:11:53;;;;;;;1.20;0.75;;;;;;;-0.02;63.72;103418.41;5077048;28;20130;-74
2022/12/04 08:14:21;;;;;;;1.67;0.68;;;;;;;-0.03;63.72;103419.19;5082781;28;20104;-74
2022/12/04 08:16:49;;;;;;;1.02;0.57;;;;;;;-0.04;63.92;103426.00;5077941;28;20059;-75
2022/12/04 08:19:16;;;;;;;2.97;0.80;;;;;;;-0.06;63.77;103422.47;5076813;28;20098;-74
2022/12/04 08:21:43;;;;;;;1.27;0.80;;;;;;;-0.08;64.09;103428.28;5077902;28;20056;-74
2022/12/04 08:24:09;;;;;;;1.85;0.98;;;;;;;-0.06;63.91;103421.53;5078298;28;20519;-74
2022/12/04 08:26:37;;;;;;;2.70;1.10;;;;;;;-0.06;63.68;103426.69;5076180;28;20078;-76
2022/12/04 08:29:04;;;;;;;3.53;0.82;;;;;;;-0.09;64.21;103426.47;5079062;28;20098;-74
2022/12/04 08:31:35;;;;;;;2.72;0.80;;;;;;;-0.08;63.63;103426.59;5079549;28;20127;-77
2022/12/04 08:34:04;;;;;;;2.08;0.80;;;;;;;-0.07;64.02;103432.63;5081295;28;20487;-76
2022/12/04 08:36:32;;;;;;;2.28;0.95;;;;;;;-0.07;63.91;103435.19;5077549;28;20543;-76
2022/12/04 08:38:59;;;;;;;1.33;0.80;;;;;;;-0.08;64.17;103433.41;5077650;28;20044;-76
2022/12/04 08:41:26;;;;;;;2.83;1.50;;;;;;;-0.08;63.88;103436.00;5081244;28;20572;-76
2022/12/04 08:43:55;;;;;;;1.98;0.90;;;;;;;-0.08;64.16;103448.84;5080916;28;20044;-77
2022/12/04 08:46:23;;;;;;;2.03;0.80;;;;;;;-0.10;63.99;103442.69;5081758;28;20518;-76
2022/12/04 08:48:51;;;;;;;2.75;1.00;;;;;;;-0.08;63.63;103451.41;5077528;28;20052;-76
2022/12/04 08:51:19;;;;;;;2.30;0.80;;;;;;;-0.14;63.91;103435.53;5083013;28;20052;-76
2022/12/04 08:53:46;;;;;;;8.18;2.60;;;;;;;-0.08;63.85;103448.84;5076011;28;20458;-75
2022/12/04 08:56:14;;;;;;;1.65;0.85;;;;;;;-0.07;64.14;103450.59;5084085;28;20397;-75
2022/12/04 08:58:40;;;;;;;2.60;1.00;;;;;;;-0.09;64.36;103441.88;5076597;28;20044;-76
2022/12/04 09:01:09;;;;;;;1.58;0.80;;;;;;;-0.07;64.02;103445.47;5074206;28;20102;-76
2022/12/04 09:03:36;;;;;;;7.55;1.15;;;;;;;-0.08;64.38;103453.97;5079402;28;20097;-76
2022/12/04 09:06:06;;;;;;;2.17;1.10;;;;;;;-0.07;63.63;103450.59;5078459;28;20074;-76
2022/12/04 09:08:33;;;;;;;1.55;0.90;;;;;;;-0.07;64.65;103448.91;5078648;28;20116;-76
2022/12/04 09:11:03;;;;;;;2.45;0.85;;;;;;;-0.06;64.27;103447.25;5077790;28;20054;-76
2022/12/04 09:13:30;;;;;;;2.03;0.95;;;;;;;-0.06;64.01;103442.09;5082606;28;20040;-76
2022/12/04 09:15:57;;;;;;;4.13;0.98;;;;;;;-0.06;64.33;103437.88;5080221;28;20055;-76
2022/12/04 09:18:24;;;;;;;2.88;0.98;;;;;;;-0.05;64.40;103444.78;5075295;28;20060;-76
2022/12/04 09:20:55;;;;;;;2.25;0.90;;;;;;;-0.01;64.48;103435.59;5081998;28;20051;-76
2022/12/04 09:23:24;;;;;;;2.30;1.10;;;;;;;-0.02;64.34;103444.09;5077203;28;20171;-76
2022/12/04 09:25:51;;;;;;;1.52;0.80;;;;;;;-0.01;64.39;103441.63;5079044;28;20106;-76
2022/12/04 09:28:17;;;;;;;1.92;0.93;;;;;;;0.00;64.14;103445.13;5082036;28;20565;-77
2022/12/04 09:30:44;;;;;;;2.33;0.88;;;;;;;0.02;64.43;103446.06;5079190;28;20135;-77
2022/12/04 09:33:11;;;;;;;1.88;0.82;;;;;;;0.03;64.39;103444.41;5077876;28;20044;-76
2022/12/04 09:35:39;;;;;;;1.95;1.25;;;;;;;0.04;64.01;103447.09;5079322;28;20040;-76
2022/12/04 09:38:06;;;;;;;2.13;1.00;;;;;;;0.04;64.68;103447.09;5079968;28;20105;-76
2022/12/04 09:40:41;;;;;;;6.38;3.38;;;;;;;0.05;64.50;103440.25;5080276;28;20415;-77
2022/12/04 09:43:23;;;;;;;3.90;1.88;;;;;;;0.06;64.97;103445.53;5085563;28;20514;-76
2022/12/04 09:45:53;;;;;;;4.38;2.42;;;;;;;0.04;64.64;103436.81;5078834;28;20882;-76
2022/12/04 09:48:22;;;;;;;3.72;1.65;;;;;;;0.09;64.53;103442.25;5078975;28;20052;-77
2022/12/04 09:50:50;;;;;;;2.28;1.27;;;;;;;0.05;65.09;103433.44;5083764;28;20060;-76
2022/12/04 09:53:22;;;;;;;2.40;1.25;;;;;;;0.10;64.62;103431.19;5078479;28;20051;-76
2022/12/04 09:55:55;;;;;;;2.33;0.88;;;;;;;0.11;65.01;103433.84;5080923;28;20044;-76
2022/12/04 09:58:27;;;;;;;5.68;1.30;;;;;;;0.10;64.84;103429.50;5075511;28;20428;-76
2022/12/04 10:00:56;;;;;;;2.78;1.25;;;;;;;0.14;65.24;103428.94;5075600;28;20044;-77
2022/12/04 10:03:28;;;;;;;4.32;1.52;;;;;;;0.13;64.83;103411.72;5069759;28;20461;-77
2022/12/04 10:06:00;;;;;;;4.68;2.10;;;;;;;0.08;65.00;103399.34;5071640;28;20397;-76
2022/12/04 10:08:29;;;;;;;4.68;1.70;;;;;;;0.17;64.40;103416.28;5071723;28;20450;-75
2022/12/04 10:11:06;;;;;;;2.38;1.33;;;;;;;0.18;65.38;103415.47;5070002;28;20052;-76
2022/12/04 10:14:00;;;;;;;2.67;1.27;;;;;;;0.18;64.56;103410.34;5071887;28;20056;-77
2022/12/04 10:16:35;;;;;;;2.50;1.38;;;;;;;0.18;64.68;103407.78;5073498;28;20419;-77
2022/12/04 10:19:08;;;;;;;5.25;1.65;;;;;;;0.20;64.97;103416.50;5076326;28;20499;-76
2022/12/04 10:21:45;;;;;;;4.70;2.15;;;;;;;0.22;65.52;103416.56;5075929;28;20586;-76
2022/12/04 10:24:28;;;;;;;4.25;1.67;;;;;;;0.20;64.67;103401.06;5074517;28;20048;-76
2022/12/04 10:27:02;;;;;;;2.13;1.60;;;;;;;0.22;64.64;103404.59;5075036;28;20048;-75
2022/12/04 10:29:32;;;;;;;3.95;2.20;;;;;;;0.25;64.69;103413.31;5076335;28;20421;-75
2022/12/04 10:32:17;;;;;;;3.50;1.75;;;;;;;0.26;65.59;103402.22;5075856;28;20106;-76
2022/12/04 10:34:45;;;;;;;7.57;2.92;;;;;;;0.28;64.95;103409.25;5075996;28;20098;-76
2022/12/04 10:37:13;;;;;;;4.00;1.48;;;;;;;0.29;64.72;103405.03;5078016;28;20066;-76
2022/12/04 10:39:46;;;;;;;4.82;1.45;;;;;;;0.31;64.74;103411.16;5078430;28;20101;-74
2022/12/04 10:42:27;;;;;;;2.75;1.10;;;;;;;0.32;65.13;103405.22;5080676;28;20048;-76
2022/12/04 10:44:54;;;;;;;2.67;1.00;;;;;;;0.32;64.91;103402.66;5080054;28;20161;-76
2022/12/04 10:47:22;;;;;;;3.53;1.80;;;;;;;0.34;64.82;103407.13;5079073;28;20036;-76
2022/12/04 10:49:58;;;;;;;3.70;1.73;;;;;;;0.35;64.82;103408.00;5076863;28;20036;-75
2022/12/04 10:52:25;;;;;;;3.88;1.42;;;;;;;0.36;64.73;103409.78;5077253;28;20105;-76
2022/12/04 10:54:56;;;;;;;2.13;1.45;;;;;;;0.31;65.05;103398.28;5079054;28;20048;-75
2022/12/04 10:57:36;;;;;;;2.90;1.20;;;;;;;0.40;65.08;103411.78;5078241;28;20090;-76
2022/12/04 11:00:04;;;;;;;2.92;1.30;;;;;;;0.40;64.66;103409.19;5083596;28;20052;-76
2022/12/04 11:02:33;;;;;;;2.40;1.45;;;;;;;0.42;65.25;103403.34;5081913;28;20060;-75
2022/12/04 11:05:02;;;;;;;2.28;1.13;;;;;;;0.42;64.82;103402.47;5081167;28;20049;-76
2022/12/04 11:07:30;;;;;;;2.90;1.65;;;;;;;0.44;65.23;103395.75;5080605;28;20092;-76
2022/12/04 11:10:01;;;;;;;4.05;1.27;;;;;;;0.45;64.96;103392.38;5078193;28;20048;-76
2022/12/04 11:12:30;;;;;;;2.38;1.40;;;;;;;0.45;65.05;103393.25;5080191;28;20071;-75
2022/12/04 11:15:02;;;;;;;5.00;1.98;;;;;;;0.49;65.31;103388.34;5080561;28;20048;-76
2022/12/04 11:17:28;;;;;;;3.03;1.73;;;;;;;0.48;65.01;103395.13;5082440;28;20102;-77
2022/12/04 11:26:42;;;;;;;3.63;1.55;;;;;;;0.50;65.07;103401.28;5026782;28;20116;-76
2022/12/04 11:29:16;;;;;;;4.15;1.95;;;;;;;0.54;64.91;103402.34;5078591;28;20048;-75
2022/12/04 11:31:48;;;;;;;4.40;1.83;;;;;;;0.55;65.23;103399.00;5078522;28;20060;-75
2022/12/04 11:34:19;;;;;;;4.00;2.33;;;;;;;0.54;65.25;103408.41;5076810;28;20041;-75
2022/12/04 11:36:52;;;;;;;4.00;2.40;;;;;;;0.57;65.01;103412.84;5077812;28;20044;-75
2022/12/04 11:39:24;;;;;;;5.40;2.22;;;;;;;0.54;65.06;103402.34;5079173;28;20422;-76
2022/12/04 11:41:59;;;;;;;3.80;2.13;;;;;;;0.51;64.58;103397.00;5078419;28;20048;-75
2022/12/04 11:44:29;;;;;;;6.82;1.80;;;;;;;0.56;65.66;103406.81;5079549;28;20044;-74
2022/12/04 11:46:58;;;;;;;3.13;1.42;;;;;;;0.59;65.09;103406.13;5078295;28;20056;-74
2022/12/04 11:49:26;;;;;;;5.40;1.75;;;;;;;0.58;64.87;103410.38;5079445;28;20499;-74
2022/12/04 11:52:06;;;;;;;2.83;1.42;;;;;;;0.60;65.34;103408.81;5080324;28;20461;-74
2022/12/04 11:54:43;;;;;;;3.17;2.33;;;;;;;0.60;65.48;103403.66;5074261;28;20177;-75
2022/12/04 11:57:18;;;;;;;2.85;1.35;;;;;;;0.60;65.13;103401.09;5084035;28;20044;-74
2022/12/04 11:59:59;;;;;;;3.20;1.95;;;;;;;0.60;65.27;103406.25;5073522;28;20459;-74
2022/12/04 12:02:41;;;;;;;1.85;1.00;;;;;;;0.59;64.72;103395.84;5078433;28;20041;-71